sensor_id;sensor_type;location;lat;lon;timestamp;pressure;altitude;pressure_sealevel;temperature;humidity
33949;BME280;20229;49.856;19.030;2022-12-18T00:03:51;103162.83;;;-3.74;88.12
33949;BME280;20229;49.856;19.030;2022-12-18T00:08:56;103172.70;;;-3.72;88.05
33949;BME280;20229;49.856;19.030;2022-12-18T00:14:16;103180.52;;;-3.76;88.17
33949;BME280;20229;49.856;19.030;2022-12-18T00:19:19;103182.47;;;-3.72;88.13
33949;BME280;20229;49.856;19.030;2022-12-18T00:24:41;103202.78;;;-3.76;87.84
33949;BME280;20229;49.856;19.030;2022-12-18T00:29:45;103194.96;;;-3.71;87.56
33949;BME280;20229;49.856;19.030;2022-12-18T00:35:08;103198.34;;;-3.75;87.70
33949;BME280;20229;49.856;19.030;2022-12-18T00:40:12;103197.57;;;-3.73;87.86
33949;BME280;20229;49.856;19.030;2022-12-18T00:45:33;103217.13;;;-3.74;87.79
33949;BME280;20229;49.856;19.030;2022-12-18T00:50:37;103219.84;;;-3.72;87.80
33949;BME280;20229;49.856;19.030;2022-12-18T00:55:59;103227.66;;;-3.77;87.81
33949;BME280;20229;49.856;19.030;2022-12-18T01:01:06;103239.38;;;-3.73;87.37
33949;BME280;20229;49.856;19.030;2022-12-18T01:06:25;103242.76;;;-3.77;87.75
33949;BME280;20229;49.856;19.030;2022-12-18T01:11:29;103252.64;;;-3.75;87.66
33949;BME280;20229;49.856;19.030;2022-12-18T01:16:51;103261.45;;;-3.77;88.04
33949;BME280;20229;49.856;19.030;2022-12-18T01:21:55;103248.24;;;-3.74;88.03
33949;BME280;20229;49.856;19.030;2022-12-18T01:27:17;103251.69;;;-3.77;88.04
33949;BME280;20229;49.856;19.030;2022-12-18T01:32:21;103251.73;;;-3.75;88.03
33949;BME280;20229;49.856;19.030;2022-12-18T01:37:43;103248.11;;;-3.77;88.11
33949;BME280;20229;49.856;19.030;2022-12-18T01:42:51;103254.41;;;-3.75;88.21
33949;BME280;20229;49.856;19.030;2022-12-18T01:48:09;103266.70;;;-3.79;87.94
33949;BME280;20229;49.856;19.030;2022-12-18T01:53:15;103268.60;;;-3.76;87.68
33949;BME280;20229;49.856;19.030;2022-12-18T01:58:51;103270.24;;;-3.80;88.06
33949;BME280;20229;49.856;19.030;2022-12-18T02:03:48;103285.48;;;-3.77;88.26
33949;BME280;20229;49.856;19.030;2022-12-18T02:09:07;103287.02;;;-3.82;87.47
33949;BME280;20229;49.856;19.030;2022-12-18T02:25:04;103313.07;;;-3.77;87.49
33949;BME280;20229;49.856;19.030;2022-12-18T02:30:04;103323.61;;;-3.80;87.57
33949;BME280;20229;49.856;19.030;2022-12-18T02:35:12;103318.32;;;-3.78;87.21
33949;BME280;20229;49.856;19.030;2022-12-18T02:40:22;103329.81;;;-3.81;87.32
33949;BME280;20229;49.856;19.030;2022-12-18T02:45:26;103326.33;;;-3.78;86.97
33949;BME280;20229;49.856;19.030;2022-12-18T03:01:28;103342.09;;;-3.85;87.24
33949;BME280;20229;49.856;19.030;2022-12-18T03:06:40;103353.73;;;-3.82;87.19
33949;BME280;20229;49.856;19.030;2022-12-18T03:11:49;103361.59;;;-3.86;87.37
33949;BME280;20229;49.856;19.030;2022-12-18T03:17:13;103358.16;;;-3.83;87.15
33949;BME280;20229;49.856;19.030;2022-12-18T03:22:19;103353.60;;;-3.86;87.38
33949;BME280;20229;49.856;19.030;2022-12-18T03:27:25;103352.91;;;-3.81;87.02
33949;BME280;20229;49.856;19.030;2022-12-18T03:32:39;103363.30;;;-3.88;87.05
33949;BME280;20229;49.856;19.030;2022-12-18T03:37:42;103367.08;;;-3.82;86.89
33949;BME280;20229;49.856;19.030;2022-12-18T03:53:32;103372.28;;;-3.86;86.94
33949;BME280;20229;49.856;19.030;2022-12-18T03:58:40;103379.60;;;-3.81;87.06
33949;BME280;20229;49.856;19.030;2022-12-18T04:03:49;103405.25;;;-3.85;86.95
33949;BME280;20229;49.856;19.030;2022-12-18T04:08:53;103399.11;;;-3.82;86.92
33949;BME280;20229;49.856;19.030;2022-12-18T04:14:13;103407.83;;;-3.87;86.30
33949;BME280;20229;49.856;19.030;2022-12-18T04:19:17;103406.16;;;-3.85;86.46
33949;BME280;20229;49.856;19.030;2022-12-18T04:24:38;103419.36;;;-3.88;86.50
33949;BME280;20229;49.856;19.030;2022-12-18T04:29:42;103429.19;;;-3.87;86.60
33949;BME280;20229;49.856;19.030;2022-12-18T04:35:04;103431.80;;;-3.88;86.52
33949;BME280;20229;49.856;19.030;2022-12-18T04:40:13;103442.53;;;-3.87;86.08
33949;BME280;20229;49.856;19.030;2022-12-18T04:45:33;103441.55;;;-3.89;86.36
33949;BME280;20229;49.856;19.030;2022-12-18T04:50:37;103447.01;;;-3.86;86.41
33949;BME280;20229;49.856;19.030;2022-12-18T04:56:05;103448.56;;;-3.91;86.30
33949;BME280;20229;49.856;19.030;2022-12-18T05:01:10;103463.87;;;-3.87;85.98
33949;BME280;20229;49.856;19.030;2022-12-18T05:06:22;103473.59;;;-3.89;86.11
33949;BME280;20229;49.856;19.030;2022-12-18T05:11:25;103467.59;;;-3.83;86.21
33949;BME280;20229;49.856;19.030;2022-12-18T05:16:48;103487.89;;;-3.87;86.43
33949;BME280;20229;49.856;19.030;2022-12-18T05:21:51;103492.47;;;-3.84;85.83
33949;BME280;20229;49.856;19.030;2022-12-18T05:27:13;103495.85;;;-3.88;86.18
33949;BME280;20229;49.856;19.030;2022-12-18T05:32:17;103492.37;;;-3.86;86.35
33949;BME280;20229;49.856;19.030;2022-12-18T05:37:39;103490.50;;;-3.88;86.08
33949;BME280;20229;49.856;19.030;2022-12-18T05:42:43;103496.00;;;-3.85;85.59
33949;BME280;20229;49.856;19.030;2022-12-18T05:48:06;103495.05;;;-3.86;85.82
33949;BME280;20229;49.856;19.030;2022-12-18T05:53:10;103490.50;;;-3.88;85.20
33949;BME280;20229;49.856;19.030;2022-12-18T05:58:32;103502.84;;;-3.90;85.87
33949;BME280;20229;49.856;19.030;2022-12-18T06:03:36;103503.05;;;-3.86;85.29
33949;BME280;20229;49.856;19.030;2022-12-18T06:08:58;103525.11;;;-3.90;85.71
33949;BME280;20229;49.856;19.030;2022-12-18T06:14:03;103521.63;;;-3.89;85.60
33949;BME280;20229;49.856;19.030;2022-12-18T06:19:23;103519.70;;;-3.91;85.83
33949;BME280;20229;49.856;19.030;2022-12-18T06:24:27;103526.80;;;-3.92;85.81
33949;BME280;20229;49.856;19.030;2022-12-18T06:29:49;103527.48;;;-3.96;85.93
33949;BME280;20229;49.856;19.030;2022-12-18T06:34:53;103526.80;;;-3.92;86.00
33949;BME280;20229;49.856;19.030;2022-12-18T06:40:15;103543.62;;;-3.93;86.41
33949;BME280;20229;49.856;19.030;2022-12-18T06:45:19;103544.80;;;-3.88;86.25
33949;BME280;20229;49.856;19.030;2022-12-18T06:50:44;103556.32;;;-3.89;85.70
33949;BME280;20229;49.856;19.030;2022-12-18T06:55:47;103563.69;;;-3.83;85.47
33949;BME280;20229;49.856;19.030;2022-12-18T07:01:10;103568.81;;;-3.88;85.25
33949;BME280;20229;49.856;19.030;2022-12-18T07:06:16;103566.30;;;-3.85;85.62
33949;BME280;20229;49.856;19.030;2022-12-18T07:11:33;103587.50;;;-3.88;85.17
33949;BME280;20229;49.856;19.030;2022-12-18T07:16:37;103592.14;;;-3.83;85.57
33949;BME280;20229;49.856;19.030;2022-12-18T07:21:59;103602.66;;;-3.87;84.60
33949;BME280;20229;49.856;19.030;2022-12-18T07:27:03;103594.96;;;-3.80;84.78
33949;BME280;20229;49.856;19.030;2022-12-18T07:32:25;103612.96;;;-3.76;84.85
33949;BME280;20229;49.856;19.030;2022-12-18T07:37:28;103612.48;;;-3.68;84.15
33949;BME280;20229;49.856;19.030;2022-12-18T07:42:51;103614.32;;;-3.67;83.70
33949;BME280;20229;49.856;19.030;2022-12-18T07:47:54;103611.31;;;-3.55;83.55
33949;BME280;20229;49.856;19.030;2022-12-18T07:53:16;103610.31;;;-3.39;83.25
33949;BME280;20229;49.856;19.030;2022-12-18T07:58:20;103605.32;;;-3.12;82.31
33949;BME280;20229;49.856;19.030;2022-12-18T08:03:42;103616.60;;;-3.00;81.63
33949;BME280;20229;49.856;19.030;2022-12-18T08:08:46;103611.88;;;-2.86;79.59
33949;BME280;20229;49.856;19.030;2022-12-18T08:14:09;103615.60;;;-2.82;78.16
33949;BME280;20229;49.856;19.030;2022-12-18T08:19:12;103610.74;;;-2.72;78.10
33949;BME280;20229;49.856;19.030;2022-12-18T08:24:34;103621.50;;;-2.70;78.02
33949;BME280;20229;49.856;19.030;2022-12-18T08:29:37;103622.05;;;-2.58;77.33
33949;BME280;20229;49.856;19.030;2022-12-18T08:35:00;103627.52;;;-2.55;76.86
33949;BME280;20229;49.856;19.030;2022-12-18T08:40:05;103634.14;;;-2.66;77.28
33949;BME280;20229;49.856;19.030;2022-12-18T08:45:25;103642.45;;;-2.79;76.39
33949;BME280;20229;49.856;19.030;2022-12-18T08:50:29;103653.10;;;-2.81;77.63
33949;BME280;20229;49.856;19.030;2022-12-18T08:55:52;103656.38;;;-2.86;77.12
33949;BME280;20229;49.856;19.030;2022-12-18T09:01:04;103659.14;;;-2.85;76.78
33949;BME280;20229;49.856;19.030;2022-12-18T09:06:18;103660.05;;;-2.84;76.88
33949;BME280;20229;49.856;19.030;2022-12-18T09:11:24;103654.00;;;-2.80;76.93
33949;BME280;20229;49.856;19.030;2022-12-18T09:16:42;103669.19;;;-2.79;76.03
33949;BME280;20229;49.856;19.030;2022-12-18T09:21:45;103668.62;;;-2.72;76.37
33949;BME280;20229;49.856;19.030;2022-12-18T09:27:07;103672.87;;;-2.77;76.27
33949;BME280;20229;49.856;19.030;2022-12-18T09:32:10;103679.32;;;-2.72;76.59
33949;BME280;20229;49.856;19.030;2022-12-18T09:37:33;103685.52;;;-2.73;75.75
33949;BME280;20229;49.856;19.030;2022-12-18T09:42:37;103678.50;;;-2.71;75.62
33949;BME280;20229;49.856;19.030;2022-12-18T09:48:01;103667.66;;;-2.74;75.94
33949;BME280;20229;49.856;19.030;2022-12-18T09:53:15;103675.98;;;-2.68;75.09
33949;BME280;20229;49.856;19.030;2022-12-18T09:58:31;103685.81;;;-2.67;75.92
33949;BME280;20229;49.856;19.030;2022-12-18T10:03:36;103685.30;;;-2.58;75.60
33949;BME280;20229;49.856;19.030;2022-12-18T10:19:34;103655.97;;;-2.57;75.58
33949;BME280;20229;49.856;19.030;2022-12-18T10:30:18;103655.40;;;-2.50;75.77
33949;BME280;20229;49.856;19.030;2022-12-18T10:35:23;103655.77;;;-2.41;75.99
33949;BME280;20229;49.856;19.030;2022-12-18T10:40:27;103649.74;;;-2.36;75.57
33949;BME280;20229;49.856;19.030;2022-12-18T10:45:30;103640.20;;;-2.30;75.19
33949;BME280;20229;49.856;19.030;2022-12-18T10:50:47;103658.02;;;-2.30;74.32
33949;BME280;20229;49.856;19.030;2022-12-18T10:55:57;103648.59;;;-2.22;74.63
33949;BME280;20229;49.856;19.030;2022-12-18T11:01:13;103640.55;;;-2.22;75.28
33949;BME280;20229;49.856;19.030;2022-12-18T11:06:20;103626.45;;;-2.18;75.10
33949;BME280;20229;49.856;19.030;2022-12-18T11:11:33;103630.95;;;-2.17;75.84
33949;BME280;20229;49.856;19.030;2022-12-18T11:16:45;103623.33;;;-2.08;75.38
33949;BME280;20229;49.856;19.030;2022-12-18T11:22:01;103619.60;;;-2.11;74.28
33949;BME280;20229;49.856;19.030;2022-12-18T11:27:06;103604.45;;;-2.11;73.78
33949;BME280;20229;49.856;19.030;2022-12-18T11:32:34;103615.16;;;-2.11;74.42
33949;BME280;20229;49.856;19.030;2022-12-18T11:37:42;103608.89;;;-2.11;74.34
33949;BME280;20229;49.856;19.030;2022-12-18T11:43:02;103620.38;;;-2.14;73.86
33949;BME280;20229;49.856;19.030;2022-12-18T11:48:16;103622.05;;;-2.16;74.52
33949;BME280;20229;49.856;19.030;2022-12-18T11:53:21;103613.07;;;-2.18;74.25
33949;BME280;20229;49.856;19.030;2022-12-18T12:01:54;103619.34;;;-2.18;74.57
33949;BME280;20229;49.856;19.030;2022-12-18T12:18:04;103634.40;;;-2.20;74.62
33949;BME280;20229;49.856;19.030;2022-12-18T12:28:38;103648.18;;;-2.31;74.38
33949;BME280;20229;49.856;19.030;2022-12-18T12:33:54;103657.83;;;-2.35;74.53
33949;BME280;20229;49.856;19.030;2022-12-18T12:39:11;103657.49;;;-2.43;75.05
33949;BME280;20229;49.856;19.030;2022-12-18T12:44:23;103663.43;;;-2.50;74.90
33949;BME280;20229;49.856;19.030;2022-12-18T12:49:31;103660.12;;;-2.63;75.12
33949;BME280;20229;49.856;19.030;2022-12-18T12:54:36;103659.78;;;-2.71;75.19
33949;BME280;20229;49.856;19.030;2022-12-18T12:59:51;103665.55;;;-2.81;75.08
33949;BME280;20229;49.856;19.030;2022-12-18T13:36:32;103702.80;;;-3.59;76.22
33949;BME280;20229;49.856;19.030;2022-12-18T13:41:36;103696.84;;;-3.71;76.46
33949;BME280;20229;49.856;19.030;2022-12-18T13:46:45;103692.82;;;-3.81;76.94
33949;BME280;20229;49.856;19.030;2022-12-18T13:51:55;103699.11;;;-3.97;76.60
33949;BME280;20229;49.856;19.030;2022-12-18T13:56:58;103692.32;;;-4.08;76.53
33949;BME280;20229;49.856;19.030;2022-12-18T14:07:23;103697.96;;;-4.36;76.88
33949;BME280;20229;49.856;19.030;2022-12-18T14:12:30;103697.00;;;-4.54;76.70
33949;BME280;20229;49.856;19.030;2022-12-18T14:17:46;103695.35;;;-4.69;76.53
33949;BME280;20229;49.856;19.030;2022-12-18T14:22:54;103697.75;;;-4.90;76.75
33949;BME280;20229;49.856;19.030;2022-12-18T14:33:23;103712.52;;;-5.27;77.15
33949;BME280;20229;49.856;19.030;2022-12-18T14:38:35;103710.80;;;-5.42;77.07
33949;BME280;20229;49.856;19.030;2022-12-18T14:43:47;103704.08;;;-5.66;77.32
33949;BME280;20229;49.856;19.030;2022-12-18T14:48:52;103704.10;;;-5.81;77.46
33949;BME280;20229;49.856;19.030;2022-12-18T14:54:18;103710.92;;;-6.01;77.43
33949;BME280;20229;49.856;19.030;2022-12-18T14:59:24;103712.68;;;-6.16;77.78
33949;BME280;20229;49.856;19.030;2022-12-18T15:04:39;103707.90;;;-6.37;77.96
33949;BME280;20229;49.856;19.030;2022-12-18T15:15:05;103728.20;;;-6.67;77.97
33949;BME280;20229;49.856;19.030;2022-12-18T15:20:13;103737.26;;;-6.78;77.83
33949;BME280;20229;49.856;19.030;2022-12-18T15:25:35;103743.03;;;-6.99;77.73
33949;BME280;20229;49.856;19.030;2022-12-18T15:35:57;103745.23;;;-7.33;77.61
33949;BME280;20229;49.856;19.030;2022-12-18T15:41:01;103745.24;;;-7.46;78.03
33949;BME280;20229;49.856;19.030;2022-12-18T15:46:23;103757.18;;;-7.53;80.07
33949;BME280;20229;49.856;19.030;2022-12-18T15:51:34;103765.05;;;-7.41;81.36
33949;BME280;20229;49.856;19.030;2022-12-18T15:56:48;103757.99;;;-7.40;81.71
33949;BME280;20229;49.856;19.030;2022-12-18T16:02:11;103769.94;;;-7.34;82.40
33949;BME280;20229;49.856;19.030;2022-12-18T16:07:17;103770.98;;;-7.45;81.80
33949;BME280;20229;49.856;19.030;2022-12-18T16:12:22;103777.49;;;-7.53;81.35
33949;BME280;20229;49.856;19.030;2022-12-18T16:17:40;103771.08;;;-7.70;80.99
33949;BME280;20229;49.856;19.030;2022-12-18T16:22:45;103782.80;;;-7.80;80.68
33949;BME280;20229;49.856;19.030;2022-12-18T16:28:07;103789.69;;;-7.95;81.10
33949;BME280;20229;49.856;19.030;2022-12-18T16:33:10;103799.77;;;-8.03;81.08
33949;BME280;20229;49.856;19.030;2022-12-18T16:38:33;103803.11;;;-8.19;80.60
33949;BME280;20229;49.856;19.030;2022-12-18T16:43:36;103794.49;;;-8.28;81.11
33949;BME280;20229;49.856;19.030;2022-12-18T16:49:00;103794.88;;;-8.35;82.30
33949;BME280;20229;49.856;19.030;2022-12-18T16:54:03;103786.55;;;-8.28;83.02
33949;BME280;20229;49.856;19.030;2022-12-18T16:59:26;103790.93;;;-8.28;83.66
33949;BME280;20229;49.856;19.030;2022-12-18T17:04:29;103779.64;;;-8.26;84.53
33949;BME280;20229;49.856;19.030;2022-12-18T17:09:51;103768.21;;;-8.25;85.01
33949;BME280;20229;49.856;19.030;2022-12-18T17:14:56;103750.71;;;-8.09;85.75
33949;BME280;20229;49.856;19.030;2022-12-18T17:20:18;103746.05;;;-8.00;86.42
33949;BME280;20229;49.856;19.030;2022-12-18T17:25:21;103726.44;;;-8.02;85.71
33949;BME280;20229;49.856;19.030;2022-12-18T17:30:44;103730.03;;;-8.15;85.58
33949;BME280;20229;49.856;19.030;2022-12-18T17:35:47;103727.80;;;-8.09;86.48
33949;BME280;20229;49.856;19.030;2022-12-18T17:41:11;103733.30;;;-7.92;87.63
33949;BME280;20229;49.856;19.030;2022-12-18T17:46:14;103724.44;;;-7.80;87.66
33949;BME280;20229;49.856;19.030;2022-12-18T17:51:37;103740.58;;;-7.77;87.04
33949;BME280;20229;49.856;19.030;2022-12-18T17:56:40;103734.23;;;-7.65;86.51
33949;BME280;20229;49.856;19.030;2022-12-18T18:02:03;103755.66;;;-7.62;86.23
33949;BME280;20229;49.856;19.030;2022-12-18T18:07:06;103746.98;;;-7.60;86.64
33949;BME280;20229;49.856;19.030;2022-12-18T18:12:29;103743.93;;;-7.66;86.75
33949;BME280;20229;49.856;19.030;2022-12-18T18:17:44;103756.79;;;-7.59;86.72
33949;BME280;20229;49.856;19.030;2022-12-18T18:22:55;103745.05;;;-7.62;86.81
33949;BME280;20229;49.856;19.030;2022-12-18T18:27:58;103731.99;;;-7.59;86.52
33949;BME280;20229;49.856;19.030;2022-12-18T18:33:21;103748.72;;;-7.60;86.82
33949;BME280;20229;49.856;19.030;2022-12-18T18:38:25;103753.41;;;-7.56;86.71
33949;BME280;20229;49.856;19.030;2022-12-18T18:43:48;103754.84;;;-7.61;86.36
33949;BME280;20229;49.856;19.030;2022-12-18T18:48:52;103761.98;;;-7.60;86.57
33949;BME280;20229;49.856;19.030;2022-12-18T18:54:14;103759.33;;;-7.60;86.71
33949;BME280;20229;49.856;19.030;2022-12-18T18:59:18;103763.43;;;-7.52;86.66
33949;BME280;20229;49.856;19.030;2022-12-18T19:04:41;103778.39;;;-7.53;87.03
33949;BME280;20229;49.856;19.030;2022-12-18T19:09:44;103785.03;;;-7.46;86.71
33949;BME280;20229;49.856;19.030;2022-12-18T19:15:07;103792.79;;;-7.49;86.64
33949;BME280;20229;49.856;19.030;2022-12-18T19:20:10;103801.88;;;-7.46;86.26
33949;BME280;20229;49.856;19.030;2022-12-18T19:25:36;103785.45;;;-7.53;86.06
33949;BME280;20229;49.856;19.030;2022-12-18T19:30:40;103789.00;;;-7.53;85.58
33949;BME280;20229;49.856;19.030;2022-12-18T19:35:58;103806.08;;;-7.62;85.36
33949;BME280;20229;49.856;19.030;2022-12-18T19:41:06;103799.73;;;-7.64;85.23
33949;BME280;20229;49.856;19.030;2022-12-18T19:46:24;103814.43;;;-7.70;85.21
33949;BME280;20229;49.856;19.030;2022-12-18T19:51:29;103808.38;;;-7.67;85.35
33949;BME280;20229;49.856;19.030;2022-12-18T19:56:51;103814.10;;;-7.74;85.06
33949;BME280;20229;49.856;19.030;2022-12-18T20:01:55;103802.78;;;-7.72;85.14
33949;BME280;20229;49.856;19.030;2022-12-18T20:07:17;103779.45;;;-7.77;85.05
33949;BME280;20229;49.856;19.030;2022-12-18T20:12:21;103784.62;;;-7.79;84.91
33949;BME280;20229;49.856;19.030;2022-12-18T20:17:43;103785.44;;;-7.80;85.21
33949;BME280;20229;49.856;19.030;2022-12-18T20:22:46;103786.44;;;-7.78;85.20
33949;BME280;20229;49.856;19.030;2022-12-18T20:28:09;103793.10;;;-7.84;85.20
33949;BME280;20229;49.856;19.030;2022-12-18T20:33:13;103791.58;;;-7.81;85.09
33949;BME280;20229;49.856;19.030;2022-12-18T20:38:35;103790.11;;;-7.89;84.99
33949;BME280;20229;49.856;19.030;2022-12-18T20:43:46;103782.98;;;-7.90;84.84
33949;BME280;20229;49.856;19.030;2022-12-18T20:49:02;103779.20;;;-7.94;84.64
33949;BME280;20229;49.856;19.030;2022-12-18T20:54:08;103771.12;;;-7.95;84.51
33949;BME280;20229;49.856;19.030;2022-12-18T20:59:28;103767.26;;;-8.00;84.53
33949;BME280;20229;49.856;19.030;2022-12-18T21:04:31;103772.55;;;-8.00;84.44
33949;BME280;20229;49.856;19.030;2022-12-18T21:09:54;103767.65;;;-8.07;83.92
33949;BME280;20229;49.856;19.030;2022-12-18T21:14:58;103760.61;;;-8.07;83.62
33949;BME280;20229;49.856;19.030;2022-12-18T21:20:20;103757.23;;;-8.18;83.53
33949;BME280;20229;49.856;19.030;2022-12-18T21:25:23;103746.74;;;-8.16;83.63
33949;BME280;20229;49.856;19.030;2022-12-18T21:30:46;103742.63;;;-8.24;83.08
33949;BME280;20229;49.856;19.030;2022-12-18T21:35:50;103738.84;;;-8.28;82.89
33949;BME280;20229;49.856;19.030;2022-12-18T21:41:12;103747.20;;;-8.35;82.92
33949;BME280;20229;49.856;19.030;2022-12-18T21:46:28;103739.97;;;-8.37;83.02
33949;BME280;20229;49.856;19.030;2022-12-18T21:51:39;103732.10;;;-8.36;83.53
33949;BME280;20229;49.856;19.030;2022-12-18T21:56:51;103740.49;;;-8.30;83.57
33949;BME280;20229;49.856;19.030;2022-12-18T22:02:09;103747.91;;;-8.37;83.24
33949;BME280;20229;49.856;19.030;2022-12-18T22:07:15;103731.92;;;-8.39;83.21
33949;BME280;20229;49.856;19.030;2022-12-18T22:12:31;103741.30;;;-8.44;83.82
33949;BME280;20229;49.856;19.030;2022-12-18T22:17:37;103739.66;;;-8.42;83.88
33949;BME280;20229;49.856;19.030;2022-12-18T22:22:58;103724.54;;;-8.56;84.23
33949;BME280;20229;49.856;19.030;2022-12-18T22:28:01;103733.85;;;-8.36;84.28
33949;BME280;20229;49.856;19.030;2022-12-18T22:33:23;103741.80;;;-8.36;84.34
33949;BME280;20229;49.856;19.030;2022-12-18T22:38:26;103737.72;;;-8.31;84.05
33949;BME280;20229;49.856;19.030;2022-12-18T22:43:49;103753.41;;;-8.34;84.23
33949;BME280;20229;49.856;19.030;2022-12-18T22:48:53;103752.91;;;-8.29;84.43
33949;BME280;20229;49.856;19.030;2022-12-18T22:54:15;103754.53;;;-8.31;84.32
33949;BME280;20229;49.856;19.030;2022-12-18T22:59:21;103741.63;;;-8.26;84.23
33949;BME280;20229;49.856;19.030;2022-12-18T23:04:42;103744.05;;;-8.29;84.21
33949;BME280;20229;49.856;19.030;2022-12-18T23:09:45;103740.80;;;-8.25;83.96
33949;BME280;20229;49.856;19.030;2022-12-18T23:15:08;103741.63;;;-8.26;84.22
33949;BME280;20229;49.856;19.030;2022-12-18T23:20:11;103749.06;;;-8.21;84.25
33949;BME280;20229;49.856;19.030;2022-12-18T23:25:33;103748.27;;;-8.20;84.18
33949;BME280;20229;49.856;19.030;2022-12-18T23:30:37;103740.71;;;-8.13;83.98
33949;BME280;20229;49.856;19.030;2022-12-18T23:36:00;103744.27;;;-8.13;84.21
33949;BME280;20229;49.856;19.030;2022-12-18T23:41:12;103743.18;;;-8.03;84.18
33949;BME280;20229;49.856;19.030;2022-12-18T23:46:28;103751.13;;;-8.03;84.40
33949;BME280;20229;49.856;19.030;2022-12-18T23:51:32;103731.55;;;-7.92;84.35
33949;BME280;20229;49.856;19.030;2022-12-18T23:56:52;103734.20;;;-7.92;84.06
